createdAt,value
2018-02-26T00:00:58.778Z,37.30
2018-02-26T00:03:26.486Z,37.40
2018-02-26T00:05:54.080Z,38.00
2018-02-26T00:08:21.634Z,37.50
2018-02-26T00:10:50.527Z,37.00
2018-02-26T00:13:18.014Z,37.00
2018-02-26T00:15:45.492Z,37.00
2018-02-26T00:18:12.965Z,36.70
2018-02-26T00:20:40.448Z,36.50
2018-02-26T00:23:08.686Z,36.90
2018-02-26T00:25:36.249Z,36.90
2018-02-26T00:28:03.700Z,36.50
2018-02-26T00:30:31.200Z,37.00
2018-02-26T00:32:58.660Z,36.50
2018-02-26T00:35:26.105Z,36.50
2018-02-26T00:37:53.587Z,36.80
2018-02-26T00:40:21.117Z,36.80
2018-02-26T00:42:48.565Z,36.50
2018-02-26T00:45:16.052Z,36.70
2018-02-26T00:47:43.509Z,37.00
2018-02-26T00:50:11.973Z,37.40
2018-02-26T00:52:39.429Z,37.70
2018-02-26T00:55:07.682Z,38.00
2018-02-26T00:57:35.141Z,38.00
2018-02-26T01:00:02.626Z,37.50
2018-02-26T01:02:30.080Z,37.60
2018-02-26T01:04:57.557Z,37.30
2018-02-26T01:07:25.073Z,37.50
2018-02-26T01:09:52.529Z,37.70
2018-02-26T01:12:20.786Z,38.00
2018-02-26T01:14:48.261Z,38.00
2018-02-26T01:17:15.740Z,38.00
2018-02-26T01:19:43.192Z,38.30
2018-02-26T01:22:10.676Z,38.20
2018-02-26T01:24:38.129Z,38.80
2018-02-26T01:27:05.629Z,38.90
2018-02-26T01:29:33.073Z,38.60
2018-02-26T01:32:00.561Z,38.60
2018-02-26T01:34:28.026Z,38.60
2018-02-26T01:36:55.509Z,39.40
2018-02-26T01:39:22.956Z,39.00
2018-02-26T01:41:50.451Z,39.10
2018-02-26T01:44:17.905Z,39.50
2018-02-26T01:46:46.187Z,39.60
2018-02-26T01:49:13.661Z,39.50
2018-02-26T01:51:41.134Z,39.70
2018-02-26T01:54:08.593Z,39.30
2018-02-26T01:56:36.143Z,39.80
2018-02-26T01:59:03.588Z,39.90
2018-02-26T02:01:31.889Z,39.90
2018-02-26T02:04:00.113Z,40.20
2018-02-26T02:06:27.608Z,40.20
2018-02-26T02:08:55.056Z,40.40
2018-02-26T02:11:22.596Z,41.00
2018-02-26T02:13:50.097Z,41.00
2018-02-26T02:16:18.409Z,41.10
2018-02-26T02:18:45.857Z,41.60
2018-02-26T02:21:13.313Z,41.60
2018-02-26T02:23:40.794Z,41.80
2018-02-26T02:26:08.265Z,42.30
2018-02-26T02:28:35.807Z,42.70
2018-02-26T02:31:03.269Z,43.40
2018-02-26T02:33:31.670Z,43.10
2018-02-26T02:35:59.158Z,43.10
2018-02-26T02:38:26.650Z,43.20
2018-02-26T02:40:54.137Z,43.20
2018-02-26T02:43:21.641Z,43.50
2018-02-26T02:45:49.086Z,43.10
2018-02-26T02:48:17.370Z,44.60
2018-02-26T02:50:44.839Z,44.00
2018-02-26T02:53:12.493Z,44.40
2018-02-26T02:55:39.975Z,44.50
2018-02-26T02:58:10.277Z,44.50
2018-02-26T03:00:38.500Z,44.40
2018-02-26T03:03:06.001Z,44.40
2018-02-26T03:05:33.577Z,44.40
2018-02-26T03:08:01.095Z,44.70
2018-02-26T03:10:28.556Z,45.00
2018-02-26T03:12:56.025Z,44.90
2018-02-26T03:15:23.514Z,44.50
2018-02-26T03:17:51.058Z,43.90
2018-02-26T03:20:19.281Z,43.70
2018-02-26T03:22:46.761Z,43.60
2018-02-26T03:25:14.213Z,43.20
2018-02-26T03:27:41.712Z,43.20
2018-02-26T03:30:09.191Z,42.80
2018-02-26T03:32:36.872Z,42.90
2018-02-26T03:35:04.414Z,42.80
2018-02-26T03:37:31.912Z,42.20
2018-02-26T03:39:59.371Z,41.80
2018-02-26T03:42:26.852Z,41.90
2018-02-26T03:44:54.333Z,41.80
2018-02-26T03:47:21.863Z,41.70
2018-02-26T03:49:49.353Z,41.90
2018-02-26T03:52:16.829Z,41.60
2018-02-26T03:54:44.313Z,41.00
2018-02-26T03:57:11.902Z,41.00
2018-02-26T03:59:39.390Z,40.50
2018-02-26T04:02:06.858Z,40.60
2018-02-26T04:04:35.126Z,40.30
2018-02-26T04:07:02.667Z,40.20
2018-02-26T04:09:30.131Z,39.90
2018-02-26T04:11:57.625Z,39.70
2018-02-26T04:14:25.128Z,39.80
2018-02-26T04:16:52.625Z,40.10
2018-02-26T04:19:20.079Z,39.90
2018-02-26T04:21:48.343Z,39.60
2018-02-26T04:24:15.830Z,39.60
2018-02-26T04:26:43.483Z,39.20
2018-02-26T04:29:11.940Z,38.80
2018-02-26T04:31:39.402Z,38.70
2018-02-26T04:34:06.893Z,39.10
2018-02-26T04:36:34.333Z,39.30
2018-02-26T04:39:02.637Z,38.70
2018-02-26T04:41:30.106Z,38.60
2018-02-26T04:43:57.577Z,38.10
2018-02-26T04:46:25.045Z,38.50
2018-02-26T04:48:52.583Z,38.20
2018-02-26T04:51:20.033Z,37.90
2018-02-26T04:53:47.523Z,38.00
2018-02-26T04:56:14.980Z,37.70
2018-02-26T04:58:42.461Z,37.80
2018-02-26T05:01:09.926Z,37.40
2018-02-26T05:03:37.410Z,37.70
2018-02-26T05:06:04.882Z,38.10
2018-02-26T05:08:32.363Z,37.90
2018-02-26T05:11:00.583Z,37.60
2018-02-26T05:13:28.085Z,37.50
2018-02-26T05:15:55.553Z,37.50
2018-02-26T05:18:23.025Z,37.60
2018-02-26T05:20:50.489Z,38.40
2018-02-26T05:23:18.738Z,37.30
2018-02-26T05:25:46.965Z,38.10
2018-02-26T05:28:14.455Z,38.00
2018-02-26T05:30:41.909Z,37.90
2018-02-26T05:33:09.395Z,37.90
2018-02-26T05:35:36.854Z,38.20
2018-02-26T05:38:04.329Z,38.40
2018-02-26T05:40:31.795Z,38.40
2018-02-26T05:42:59.280Z,38.20
2018-02-26T05:45:26.736Z,38.00
2018-02-26T05:47:54.221Z,38.40
2018-02-26T05:50:21.677Z,38.50
2018-02-26T05:52:49.165Z,38.40
2018-02-26T05:55:16.617Z,39.00
2018-02-26T05:57:44.092Z,38.80
2018-02-26T06:00:11.551Z,38.70
2018-02-26T06:02:39.069Z,38.40
2018-02-26T06:05:06.490Z,38.10
2018-02-26T06:07:33.970Z,38.30
2018-02-26T06:10:01.425Z,38.20
2018-02-26T06:12:28.916Z,38.40
2018-02-26T06:14:56.377Z,38.70
2018-02-26T06:17:23.853Z,38.50
2018-02-26T06:19:51.308Z,38.30
2018-02-26T06:22:18.790Z,38.60
2018-02-26T06:24:47.085Z,38.60
2018-02-26T06:27:14.565Z,38.40
2018-02-26T06:29:42.025Z,38.10
2018-02-26T06:32:09.501Z,37.90
2018-02-26T06:34:36.958Z,38.20
2018-02-26T06:37:04.437Z,38.50
2018-02-26T06:39:31.893Z,38.50
2018-02-26T06:41:59.403Z,38.80
2018-02-26T06:44:26.862Z,38.90
2018-02-26T06:46:54.337Z,38.70
2018-02-26T06:49:21.798Z,38.70
2018-02-26T06:51:49.286Z,38.70
2018-02-26T06:54:16.737Z,38.60
2018-02-26T06:56:44.218Z,38.40
2018-02-26T06:59:11.835Z,38.40
2018-02-26T07:01:39.306Z,38.30
2018-02-26T07:04:07.528Z,39.00
2018-02-26T07:06:35.085Z,39.00
2018-02-26T07:09:02.591Z,38.70
2018-02-26T07:11:30.059Z,38.70
2018-02-26T07:13:57.532Z,39.00
2018-02-26T07:16:24.988Z,38.90
2018-02-26T07:18:52.469Z,38.80
2018-02-26T07:21:19.926Z,38.80
2018-02-26T07:23:47.410Z,38.80
2018-02-26T07:26:14.902Z,38.60
2018-02-26T07:28:42.378Z,38.60
2018-02-26T07:31:09.834Z,38.60
2018-02-26T07:33:37.318Z,38.40
2018-02-26T07:36:04.766Z,38.20
2018-02-26T07:38:32.246Z,37.80
2018-02-26T07:40:59.689Z,38.00
2018-02-26T07:43:27.184Z,37.80
2018-02-26T07:45:54.645Z,37.10
2018-02-26T07:48:22.118Z,36.90
2018-02-26T07:50:49.574Z,37.10
2018-02-26T07:53:17.062Z,38.00
2018-02-26T07:55:44.536Z,37.30
2018-02-26T07:58:12.054Z,36.70
2018-02-26T08:00:39.517Z,36.70
2018-02-26T08:03:06.994Z,37.00
2018-02-26T08:05:34.454Z,36.90
2018-02-26T08:08:01.944Z,36.60
2018-02-26T08:10:29.445Z,36.50
2018-02-26T08:12:56.974Z,36.30
2018-02-26T08:15:24.485Z,36.50
2018-02-26T08:17:52.695Z,39.20
2018-02-26T08:20:20.905Z,38.70
2018-02-26T08:22:49.352Z,38.10
2018-02-26T08:25:16.810Z,37.10
2018-02-26T08:27:45.041Z,35.90
2018-02-26T08:30:12.549Z,35.90
2018-02-26T08:32:40.761Z,36.20
2018-02-26T08:35:08.984Z,35.80
2018-02-26T08:37:36.474Z,35.80
2018-02-26T08:40:03.949Z,35.90
2018-02-26T08:42:32.160Z,35.40
2018-02-26T08:45:00.730Z,35.10
2018-02-26T08:47:28.221Z,35.10
2018-02-26T08:49:56.473Z,35.20
2018-02-26T08:52:23.928Z,35.10
2018-02-26T08:54:51.441Z,34.30
2018-02-26T08:57:18.904Z,34.00
2018-02-26T08:59:46.387Z,33.20
2018-02-26T09:02:13.841Z,32.70
2018-02-26T09:04:41.319Z,32.80
2018-02-26T09:07:08.770Z,32.70
2018-02-26T09:09:36.272Z,32.40
2018-02-26T09:12:03.726Z,31.90
2018-02-26T09:14:31.225Z,31.70
2018-02-26T09:16:58.712Z,31.80
2018-02-26T09:19:26.199Z,31.90
2018-02-26T09:21:53.670Z,31.90
2018-02-26T09:24:21.141Z,31.50
2018-02-26T09:26:48.678Z,31.70
2018-02-26T09:29:16.161Z,31.30
2018-02-26T09:31:44.389Z,30.50
2018-02-26T09:34:11.879Z,30.50
2018-02-26T09:36:39.325Z,30.70
2018-02-26T09:39:06.808Z,31.10
2018-02-26T09:41:34.262Z,30.30
2018-02-26T09:44:01.743Z,30.30
2018-02-26T09:46:29.202Z,30.50
2018-02-26T09:48:56.686Z,30.80
2018-02-26T09:51:24.129Z,30.40
2018-02-26T09:53:51.630Z,30.60
2018-02-26T09:56:19.090Z,31.00
2018-02-26T09:58:46.547Z,29.70
2018-02-26T10:01:14.030Z,30.00
2018-02-26T10:03:41.483Z,29.90
2018-02-26T10:06:08.969Z,30.10
2018-02-26T10:08:36.428Z,30.50
2018-02-26T10:11:03.908Z,30.50
2018-02-26T10:13:31.446Z,30.60
2018-02-26T10:15:58.865Z,29.90
2018-02-26T10:18:26.339Z,29.50
2018-02-26T10:20:53.821Z,29.90
2018-02-26T10:23:21.293Z,29.50
2018-02-26T10:25:48.765Z,28.90
2018-02-26T10:28:16.239Z,29.40
2018-02-26T10:30:43.709Z,29.30
2018-02-26T10:33:11.162Z,29.60
2018-02-26T10:35:38.649Z,30.00
2018-02-26T10:38:06.098Z,29.90
2018-02-26T10:40:33.569Z,29.90
2018-02-26T10:43:01.029Z,34.60
2018-02-26T10:45:28.529Z,35.50
2018-02-26T10:47:56.033Z,30.90
2018-02-26T10:50:24.197Z,30.10
2018-02-26T10:52:51.658Z,30.00
2018-02-26T10:55:19.134Z,29.80
2018-02-26T10:57:46.599Z,29.70
2018-02-26T11:00:14.065Z,29.80
2018-02-26T11:02:41.525Z,29.90
2018-02-26T11:05:09.010Z,30.00
2018-02-26T11:07:36.540Z,29.90
2018-02-26T11:10:04.076Z,29.90
2018-02-26T11:12:31.551Z,29.60
2018-02-26T11:14:59.050Z,29.50
2018-02-26T11:17:27.301Z,29.50
2018-02-26T11:19:54.815Z,29.40
2018-02-26T11:22:23.052Z,29.50
2018-02-26T11:24:50.547Z,29.50
2018-02-26T11:27:18.015Z,29.30
2018-02-26T11:29:45.512Z,29.70
2018-02-26T11:32:13.766Z,28.90
2018-02-26T11:34:41.319Z,28.60
2018-02-26T11:37:08.830Z,28.50
2018-02-26T11:39:36.302Z,29.10
2018-02-26T11:42:03.832Z,29.40
2018-02-26T11:44:31.316Z,29.10
2018-02-26T11:46:58.812Z,29.20
2018-02-26T11:49:26.308Z,29.20
2018-02-26T11:51:54.602Z,29.80
2018-02-26T11:54:22.838Z,29.70
2018-02-26T11:56:50.337Z,29.70
2018-02-26T11:59:17.812Z,29.30
2018-02-26T12:01:45.311Z,28.70
2018-02-26T12:04:12.801Z,28.40
2018-02-26T12:06:40.298Z,29.00
2018-02-26T12:09:07.778Z,28.20
2018-02-26T12:11:35.284Z,29.40
2018-02-26T12:14:03.508Z,27.90
2018-02-26T12:16:31.036Z,27.80
2018-02-26T12:18:58.494Z,27.60
2018-02-26T12:21:25.968Z,27.30
2018-02-26T12:23:53.433Z,27.60
2018-02-26T12:26:20.912Z,28.30
2018-02-26T12:28:48.385Z,27.50
2018-02-26T12:31:15.865Z,27.30
2018-02-26T12:33:44.081Z,28.10
2018-02-26T12:36:11.572Z,28.10
2018-02-26T12:38:39.035Z,28.30
2018-02-26T12:41:06.517Z,27.80
2018-02-26T12:43:33.977Z,28.10
2018-02-26T12:46:01.469Z,28.50
2018-02-26T12:48:28.938Z,28.30
2018-02-26T12:50:57.188Z,28.60
2018-02-26T12:53:24.646Z,28.20
2018-02-26T12:55:52.890Z,29.00
2018-02-26T12:58:20.349Z,29.00
2018-02-26T13:00:48.738Z,28.50
2018-02-26T13:03:16.193Z,27.80
2018-02-26T13:05:43.673Z,27.80
2018-02-26T13:08:11.147Z,27.90
2018-02-26T13:10:38.667Z,28.30
2018-02-26T13:13:06.088Z,28.20
2018-02-26T13:15:33.579Z,28.10
2018-02-26T13:18:01.049Z,27.30
2018-02-26T13:20:28.544Z,26.80
2018-02-26T13:22:56.032Z,26.60
2018-02-26T13:25:23.470Z,26.80
2018-02-26T13:27:51.035Z,25.90
2018-02-26T13:30:18.498Z,26.10
2018-02-26T13:32:45.978Z,26.40
2018-02-26T13:35:13.438Z,25.80
2018-02-26T13:37:40.916Z,26.00
2018-02-26T13:40:08.379Z,25.70
2018-02-26T13:42:35.848Z,25.90
2018-02-26T13:45:03.310Z,26.40
2018-02-26T13:47:30.796Z,26.70
2018-02-26T13:49:58.250Z,26.30
2018-02-26T13:52:25.728Z,28.20
2018-02-26T13:54:53.186Z,26.70
2018-02-26T13:57:20.661Z,25.40
2018-02-26T13:59:48.153Z,25.80
2018-02-26T14:02:15.610Z,26.00
2018-02-26T14:04:43.074Z,26.00
2018-02-26T14:07:10.525Z,26.50
2018-02-26T14:09:37.996Z,26.90
2018-02-26T14:12:05.440Z,27.00
2018-02-26T14:14:32.898Z,33.30
2018-02-26T14:17:00.361Z,30.00
2018-02-26T14:19:27.841Z,28.00
2018-02-26T14:21:55.316Z,27.10
2018-02-26T14:24:22.779Z,27.00
2018-02-26T14:26:50.226Z,25.90
2018-02-26T14:29:17.694Z,26.40
2018-02-26T14:31:45.150Z,26.50
2018-02-26T14:34:12.616Z,26.30
2018-02-26T14:36:40.079Z,26.00
2018-02-26T14:39:07.540Z,26.10
2018-02-26T14:41:35.770Z,25.60
2018-02-26T14:44:03.222Z,25.50
2018-02-26T14:46:30.674Z,26.30
2018-02-26T14:48:58.132Z,26.70
2018-02-26T14:51:26.373Z,27.60
2018-02-26T14:53:53.837Z,27.60
2018-02-26T14:56:21.297Z,27.80
2018-02-26T14:58:48.828Z,28.00
2018-02-26T15:01:16.273Z,27.90
2018-02-26T15:03:43.733Z,27.90
2018-02-26T15:06:11.202Z,28.10
2018-02-26T15:08:38.658Z,28.10
2018-02-26T15:11:06.174Z,28.50
2018-02-26T15:13:33.623Z,28.80
2018-02-26T15:16:01.809Z,28.70
2018-02-26T15:18:29.265Z,28.40
2018-02-26T15:20:56.725Z,28.60
2018-02-26T15:23:24.191Z,29.30
2018-02-26T15:25:51.653Z,29.70
2018-02-26T15:28:19.111Z,30.00
2018-02-26T15:30:46.573Z,30.40
2018-02-26T15:33:14.030Z,30.50
2018-02-26T15:35:41.489Z,30.80
2018-02-26T15:38:08.962Z,30.80
2018-02-26T15:40:36.427Z,30.40
2018-02-26T15:43:03.878Z,30.00
2018-02-26T15:45:31.342Z,30.00
2018-02-26T15:47:58.893Z,30.30
2018-02-26T15:50:26.367Z,30.80
2018-02-26T15:52:53.841Z,31.40
2018-02-26T15:55:21.306Z,31.00
2018-02-26T15:57:48.782Z,31.00
2018-02-26T16:00:16.249Z,30.80
2018-02-26T16:02:43.712Z,30.90
2018-02-26T16:05:11.169Z,31.20
2018-02-26T16:07:38.629Z,31.10
2018-02-26T16:10:06.874Z,31.00
2018-02-26T16:12:34.346Z,31.00
2018-02-26T16:15:01.828Z,31.20
2018-02-26T16:17:29.299Z,31.70
2018-02-26T16:20:00.913Z,32.10
2018-02-26T16:22:28.388Z,31.80
2018-02-26T16:24:55.849Z,31.50
2018-02-26T16:27:24.077Z,31.80
2018-02-26T16:29:51.580Z,31.70
2018-02-26T16:32:19.004Z,31.60
2018-02-26T16:34:46.465Z,31.90
2018-02-26T16:37:13.933Z,32.20
2018-02-26T16:39:41.394Z,31.80
2018-02-26T16:42:09.629Z,31.70
2018-02-26T16:44:37.107Z,31.70
2018-02-26T16:47:05.385Z,33.80
2018-02-26T16:49:32.902Z,33.70
2018-02-26T16:52:01.140Z,33.00
2018-02-26T16:54:28.613Z,33.00
2018-02-26T16:56:56.069Z,32.30
2018-02-26T16:59:23.596Z,31.80
2018-02-26T17:01:52.283Z,31.90
2018-02-26T17:04:19.733Z,32.00
2018-02-26T17:06:47.213Z,32.70
2018-02-26T17:09:14.694Z,33.20
2018-02-26T17:11:42.178Z,33.30
2018-02-26T17:14:09.666Z,33.20
2018-02-26T17:16:37.146Z,33.20
2018-02-26T17:19:04.626Z,33.30
2018-02-26T17:21:32.112Z,33.50
2018-02-26T17:23:59.580Z,34.20
2018-02-26T17:26:27.111Z,33.60
2018-02-26T17:28:55.338Z,34.60
2018-02-26T17:31:22.809Z,34.30
2018-02-26T17:33:50.304Z,36.00
2018-02-26T17:36:17.785Z,34.80
2018-02-26T17:38:45.256Z,35.00
2018-02-26T17:41:12.781Z,35.50
2018-02-26T17:43:40.241Z,35.20
2018-02-26T17:46:08.470Z,35.20
2018-02-26T17:48:35.969Z,35.10
2018-02-26T17:51:03.433Z,36.30
2018-02-26T17:53:30.917Z,36.60
2018-02-26T17:55:58.362Z,36.90
2018-02-26T17:58:25.835Z,37.00
2018-02-26T18:00:53.293Z,37.20
2018-02-26T18:03:20.773Z,36.80
2018-02-26T18:05:48.303Z,36.70
2018-02-26T18:08:16.529Z,38.40
2018-02-26T18:13:18.012Z,37.10
2018-02-26T18:15:45.543Z,37.10
2018-02-26T18:18:13.065Z,37.50
2018-02-26T18:20:40.522Z,37.80
2018-02-26T18:23:08.009Z,38.00
2018-02-26T18:25:35.468Z,38.50
2018-02-26T18:28:02.932Z,38.20
2018-02-26T18:59:53.971Z,40.00
2018-02-26T19:02:21.439Z,41.30
2018-02-26T19:04:48.914Z,41.30
2018-02-26T19:07:17.143Z,40.90
2018-02-26T19:09:44.623Z,40.90
2018-02-26T19:12:12.089Z,41.10
2018-02-26T19:14:39.588Z,41.10
2018-02-26T19:17:07.050Z,40.40
2018-02-26T19:19:34.518Z,40.00
2018-02-26T19:22:01.987Z,39.70
2018-02-26T19:24:30.215Z,40.20
2018-02-26T19:26:57.668Z,40.20
2018-02-26T19:29:25.122Z,40.30
2018-02-26T19:31:52.619Z,40.90
2018-02-26T19:34:20.082Z,40.50
2018-02-26T19:36:47.534Z,40.30
2018-02-26T19:39:15.010Z,40.30
2018-02-26T19:41:42.469Z,40.70
2018-02-26T19:44:09.943Z,40.80
2018-02-26T19:46:38.166Z,41.20
2018-02-26T19:49:05.625Z,41.10
2018-02-26T19:51:33.873Z,41.10
2018-02-26T19:54:01.389Z,41.00
2018-02-26T19:56:28.993Z,41.70
2018-02-26T19:58:57.225Z,42.40
2018-02-26T20:01:24.704Z,42.50
2018-02-26T20:03:52.209Z,42.40
2018-02-26T20:06:20.450Z,42.80
2018-02-26T20:08:47.911Z,42.80
2018-02-26T20:11:15.377Z,43.10
2018-02-26T20:13:42.834Z,43.40
2018-02-26T20:16:10.325Z,43.40
2018-02-26T20:18:37.782Z,43.50
2018-02-26T20:21:05.253Z,43.50
2018-02-26T20:23:32.718Z,43.70
2018-02-26T20:26:00.248Z,43.80
2018-02-26T20:28:27.755Z,43.70
2018-02-26T20:30:55.962Z,44.10
2018-02-26T20:33:23.444Z,43.50
2018-02-26T20:35:50.898Z,43.40
2018-02-26T20:38:19.309Z,44.10
2018-02-26T20:40:46.805Z,44.10
2018-02-26T20:43:14.281Z,44.50
2018-02-26T20:45:41.822Z,44.30
2018-02-26T20:48:09.283Z,44.80
2018-02-26T20:50:36.741Z,44.90
2018-02-26T20:53:04.193Z,44.80
2018-02-26T20:55:32.506Z,44.80
2018-02-26T20:57:59.977Z,44.70
2018-02-26T21:00:27.437Z,44.80
2018-02-26T21:02:54.897Z,45.40
2018-02-26T21:05:23.124Z,46.10
2018-02-26T21:07:50.625Z,46.10
2018-02-26T21:10:18.078Z,46.40
2018-02-26T21:12:45.570Z,45.90
2018-02-26T21:15:13.045Z,45.50
2018-02-26T21:17:40.511Z,45.70
2018-02-26T21:20:07.974Z,47.40
2018-02-26T21:22:35.433Z,48.00
2018-02-26T21:25:02.905Z,48.60
2018-02-26T21:27:30.369Z,49.40
2018-02-26T21:29:58.186Z,49.60
2018-02-26T21:32:25.656Z,50.40
2018-02-26T21:34:53.122Z,50.40
2018-02-26T21:37:20.626Z,51.30
2018-02-26T21:39:48.849Z,52.10
2018-02-26T21:42:16.376Z,52.00
2018-02-26T21:44:44.639Z,51.80
2018-02-26T21:47:12.122Z,51.80
2018-02-26T21:49:39.578Z,52.20
2018-02-26T21:52:07.050Z,52.20
2018-02-26T21:54:34.506Z,51.40
2018-02-26T21:57:02.060Z,51.70
2018-02-26T21:59:29.593Z,51.70
2018-02-26T22:01:57.048Z,51.90
2018-02-26T22:04:24.545Z,52.50
2018-02-26T22:06:52.815Z,52.80
2018-02-26T22:09:20.529Z,52.70
2018-02-26T22:11:48.023Z,52.90
2018-02-26T22:14:15.547Z,53.00
2018-02-26T22:16:43.807Z,53.10
2018-02-26T22:19:11.294Z,53.10
2018-02-26T22:21:38.741Z,53.90
2018-02-26T22:24:06.211Z,54.00
2018-02-26T22:26:33.661Z,53.90
2018-02-26T22:29:01.137Z,53.90
2018-02-26T22:31:28.591Z,54.30
2018-02-26T22:33:56.102Z,54.30
2018-02-26T22:36:23.519Z,54.50
2018-02-26T22:38:50.978Z,55.00
2018-02-26T22:41:19.212Z,56.30
2018-02-26T22:43:46.818Z,56.20
2018-02-26T22:46:14.281Z,56.40
2018-02-26T22:48:41.745Z,56.30
2018-02-26T22:51:09.248Z,56.50
2018-02-26T22:53:36.710Z,56.40
2018-02-26T22:56:04.165Z,56.40
2018-02-26T22:58:31.653Z,57.00
2018-02-26T23:00:59.105Z,57.60
2018-02-26T23:03:26.565Z,57.40
2018-02-26T23:05:54.061Z,58.10
2018-02-26T23:08:21.525Z,58.00
2018-02-26T23:10:49.018Z,57.70
2018-02-26T23:13:16.509Z,57.80
2018-02-26T23:15:43.970Z,56.70
2018-02-26T23:18:11.446Z,56.80
2018-02-26T23:20:38.931Z,56.60
2018-02-26T23:23:07.202Z,56.90
2018-02-26T23:25:35.434Z,55.60
2018-02-26T23:28:02.895Z,55.50
2018-02-26T23:30:30.438Z,55.80
2018-02-26T23:32:57.888Z,55.60
2018-02-26T23:35:26.117Z,56.40
2018-02-26T23:37:53.587Z,56.30
2018-02-26T23:40:21.052Z,55.80
2018-02-26T23:42:48.514Z,55.30
2018-02-26T23:45:15.966Z,54.80
2018-02-26T23:47:44.192Z,53.80
2018-02-26T23:50:11.655Z,53.70
2018-02-26T23:52:39.152Z,52.40
2018-02-26T23:55:06.577Z,52.40
2018-02-26T23:57:34.801Z,52.10
